Time;durP1;ratioP1;P1;durP2;ratioP2;P2;SDS_P1;SDS_P2;PMS_P1;PMS_P2;Temp;Humidity;BMP_temperature;BMP_pressure;BME280_temperature;BME280_humidity;BME280_pressure;Samples;Min_cycle;Max_cycle;Signal;HPM_P1;HPM_P2
2022/12/23 00:01:19;;;;;;;0.80;0.63;;;10.10;98.00;;;;;;5072467;28;20047;-70
2022/12/23 00:03:45;;;;;;;1.90;0.82;;;10.00;98.00;;;;;;5069208;28;20051;-69
2022/12/23 00:06:16;;;;;;;2.10;0.50;;;10.00;97.50;;;;;;5073031;28;20028;-71
2022/12/23 00:08:42;;;;;;;4.72;1.90;;;9.90;96.40;;;;;;5070401;28;20313;-71
2022/12/23 00:11:12;;;;;;;2.85;0.60;;;9.90;96.00;;;;;;5074977;28;20033;-71
2022/12/23 00:16:22;;;;;;;1.27;0.52;;;10.00;97.50;;;;;;5072476;28;20375;-71
2022/12/23 00:18:47;;;;;;;0.40;0.40;;;10.20;98.00;;;;;;5065248;28;20037;-70
2022/12/23 00:21:15;;;;;;;0.90;0.52;;;10.30;98.00;;;;;;5057680;28;20056;-71
2022/12/23 00:23:43;;;;;;;1.25;0.60;;;10.40;98.00;;;;;;5071702;28;20494;-70
2022/12/23 00:26:19;;;;;;;1.35;0.60;;;10.40;98.00;;;;;;5047753;28;20578;-70
2022/12/23 00:28:44;;;;;;;1.88;0.60;;;10.40;98.00;;;;;;5071997;28;20481;-71
2022/12/23 00:31:11;;;;;;;0.77;0.50;;;10.50;98.00;;;;;;5074517;28;20100;-70
2022/12/23 00:33:39;;;;;;;0.73;0.50;;;10.50;98.00;;;;;;5069735;28;20116;-71
2022/12/23 00:36:13;;;;;;;1.55;0.60;;;10.50;98.00;;;;;;5073148;28;20024;-71
2022/12/23 00:44:07;;;;;;;1.85;0.65;;;10.60;98.00;;;;;;5072207;28;20040;-71
2022/12/23 00:46:33;;;;;;;1.27;0.50;;;10.60;98.00;;;;;;5073632;28;20392;-71
2022/12/23 00:51:42;;;;;;;1.08;0.50;;;10.60;98.00;;;;;;5072578;28;20459;-70
2022/12/23 00:54:08;;;;;;;1.35;0.50;;;10.70;98.00;;;;;;5073820;28;20119;-70
2022/12/23 00:56:33;;;;;;;0.55;0.50;;;10.70;98.00;;;;;;5074537;28;20036;-69
2022/12/23 00:58:59;;;;;;;0.73;0.50;;;10.70;98.00;;;;;;5073651;28;20021;-70
2022/12/23 01:06:57;;;;;;;1.00;0.50;;;10.70;98.00;;;;;;5068880;28;20123;-69
2022/12/23 01:09:23;;;;;;;0.77;0.60;;;10.60;97.60;;;;;;5072990;28;20416;-69
2022/12/23 01:11:48;;;;;;;0.80;0.50;;;10.60;97.00;;;;;;5070408;28;20036;-69
2022/12/23 01:14:14;;;;;;;0.80;0.50;;;10.50;97.00;;;;;;5072358;28;20020;-69
2022/12/23 01:16:40;;;;;;;0.85;0.50;;;10.60;97.60;;;;;;5071512;28;20082;-70
2022/12/23 01:19:06;;;;;;;1.15;0.50;;;10.70;97.80;;;;;;5073297;28;20055;-70
2022/12/23 01:21:32;;;;;;;0.82;0.60;;;10.70;97.80;;;;;;5074251;28;20035;-70
2022/12/23 01:23:58;;;;;;;0.52;0.50;;;10.70;98.00;;;;;;5072313;28;20025;-70
2022/12/23 01:26:24;;;;;;;1.40;0.50;;;10.70;98.00;;;;;;5073745;28;20048;-69
2022/12/23 01:28:53;;;;;;;0.68;0.50;;;10.80;98.00;;;;;;5074267;28;20104;-70
2022/12/23 01:31:19;;;;;;;1.65;0.50;;;10.80;98.00;;;;;;5054382;28;20028;-69
2022/12/23 01:33:45;;;;;;;1.95;0.60;;;10.80;98.00;;;;;;5071746;28;20109;-70
2022/12/23 01:36:10;;;;;;;0.88;0.60;;;10.90;98.00;;;;;;5073611;28;20027;-69
2022/12/23 01:38:36;;;;;;;0.85;0.50;;;11.00;98.00;;;;;;5075333;28;20082;-70
2022/12/23 01:41:02;;;;;;;0.68;0.40;;;11.00;98.00;;;;;;5073819;28;20070;-70
2022/12/23 01:44:23;;;;;;;0.77;0.40;;;11.00;98.00;;;;;;5071941;28;20040;-71
2022/12/23 01:46:49;;;;;;;0.65;0.50;;;10.90;98.00;;;;;;4978843;28;20045;-70
2022/12/23 01:49:14;;;;;;;0.63;0.40;;;10.90;98.00;;;;;;5020630;28;20340;-70
2022/12/23 01:51:40;;;;;;;0.77;0.50;;;10.90;98.00;;;;;;5033554;28;20029;-70
2022/12/23 01:54:05;;;;;;;0.50;0.45;;;10.90;98.00;;;;;;5029288;28;20300;-70
2022/12/23 01:56:35;;;;;;;0.50;0.40;;;11.00;98.00;;;;;;5030533;28;20108;-70
2022/12/23 02:04:50;;;;;;;0.80;0.50;;;11.00;98.00;;;;;;5026757;28;20037;-70
2022/12/23 02:10:02;;;;;;;0.60;0.50;;;11.00;98.00;;;;;;5032441;28;20087;-70
2022/12/23 02:12:39;;;;;;;0.98;0.50;;;11.00;98.00;;;;;;5024983;28;20043;-70
2022/12/23 02:18:45;;;;;;;2.70;0.50;;;10.90;97.70;;;;;;5028471;28;20064;-70
2022/12/23 02:21:32;;;;;;;2.58;0.57;;;10.90;97.00;;;;;;5030437;28;20071;-70
2022/12/23 02:24:04;;;;;;;0.40;0.40;;;10.90;97.10;;;;;;5031140;28;20032;-70
2022/12/23 02:27:07;;;;;;;0.40;0.40;;;10.80;96.60;;;;;;5033138;28;20040;-70
2022/12/23 02:30:00;;;;;;;0.70;0.50;;;10.70;95.90;;;;;;5029264;28;20030;-70
2022/12/23 02:32:53;;;;;;;0.68;0.47;;;10.80;96.70;;;;;;5030219;28;20038;-70
2022/12/23 02:35:25;;;;;;;0.40;0.40;;;10.80;96.80;;;;;;5029766;28;20037;-70
2022/12/23 02:37:59;;;;;;;1.45;0.50;;;10.70;96.30;;;;;;5032635;28;20030;-70
2022/12/23 02:40:46;;;;;;;;;;;10.70;96.10;;;;;;5034086;28;20112;-69
2022/12/23 02:43:20;;;;;;;0.55;0.40;;;10.70;96.50;;;;;;5026182;28;20000;-70
2022/12/23 02:45:51;;;;;;;1.10;0.50;;;10.80;97.10;;;;;;5061844;28;20040;-69
2022/12/23 02:48:26;;;;;;;0.50;0.50;;;10.80;97.20;;;;;;5048694;28;20343;-71
2022/12/23 02:50:55;;;;;;;1.80;0.60;;;10.80;97.40;;;;;;5069603;28;20070;-71
2022/12/23 02:53:30;;;;;;;1.08;0.50;;;10.90;97.90;;;;;;5068450;28;20449;-70
2022/12/23 02:55:58;;;;;;;0.40;0.40;;;11.00;98.00;;;;;;5074841;28;20032;-71
2022/12/23 02:58:28;;;;;;;0.40;0.40;;;11.10;98.00;;;;;;5069669;28;20323;-70
2022/12/23 03:00:56;;;;;;;0.98;0.82;;;11.30;98.00;;;;;;5051907;28;20059;-71
2022/12/23 03:03:25;;;;;;;0.60;0.47;;;11.30;98.00;;;;;;5071922;28;20033;-70
2022/12/23 03:05:51;;;;;;;0.52;0.40;;;11.30;98.00;;;;;;5071554;28;20028;-70
2022/12/23 03:08:26;;;;;;;0.40;0.40;;;11.30;98.00;;;;;;5075952;28;20082;-71
2022/12/23 03:11:03;;;;;;;0.55;0.38;;;11.30;98.00;;;;;;5075265;28;20061;-70
2022/12/23 03:14:10;;;;;;;0.40;0.40;;;11.20;98.00;;;;;;5075429;28;20029;-70
2022/12/23 03:16:44;;;;;;;0.50;0.50;;;11.10;97.60;;;;;;5077192;28;20028;-70
2022/12/23 03:19:21;;;;;;;0.40;0.40;;;11.10;97.80;;;;;;5068725;28;20032;-70
2022/12/23 03:22:12;;;;;;;0.40;0.40;;;11.10;97.50;;;;;;5048793;28;20033;-70
2022/12/23 03:24:41;;;;;;;0.55;0.50;;;11.10;97.70;;;;;;5047285;28;20036;-70
2022/12/23 03:27:28;;;;;;;0.45;0.40;;;11.10;97.80;;;;;;5048643;28;20043;-70
2022/12/23 03:30:04;;;;;;;0.50;0.50;;;11.10;97.50;;;;;;5025217;28;20033;-70
2022/12/23 03:32:35;;;;;;;0.40;0.40;;;11.10;97.70;;;;;;5047975;28;20033;-70
2022/12/23 03:35:04;;;;;;;2.05;0.40;;;11.10;97.80;;;;;;5060022;28;20029;-70
2022/12/23 03:37:35;;;;;;;0.40;0.40;;;11.20;97.80;;;;;;5065621;28;20071;-70
2022/12/23 03:40:07;;;;;;;0.40;0.40;;;11.10;97.50;;;;;;5059736;28;20070;-70
2022/12/23 03:42:36;;;;;;;0.68;0.40;;;11.10;97.00;;;;;;5037681;28;20087;-70
2022/12/23 03:45:13;;;;;;;0.52;0.40;;;10.90;96.20;;;;;;5042366;28;21799;-70
2022/12/23 03:47:50;;;;;;;0.77;0.40;;;10.90;95.80;;;;;;5072437;28;20067;-70
2022/12/23 03:50:19;;;;;;;0.68;0.40;;;10.80;94.70;;;;;;5051812;28;20031;-70
2022/12/23 03:52:51;;;;;;;0.40;0.40;;;10.70;93.70;;;;;;5076623;28;20035;-70
2022/12/23 03:55:28;;;;;;;1.02;0.50;;;10.70;92.70;;;;;;5076707;28;20027;-70
2022/12/23 03:58:13;;;;;;;0.60;0.50;;;10.70;93.40;;;;;;5063406;28;20056;-70
2022/12/23 04:00:43;;;;;;;;;;;10.70;93.50;;;;;;5051412;28;20028;-70
2022/12/23 04:03:12;;;;;;;0.50;0.50;;;10.70;93.20;;;;;;5072206;28;19916;-70
2022/12/23 04:05:45;;;;;;;0.80;0.47;;;10.70;93.40;;;;;;5074900;28;20052;-70
2022/12/23 04:08:16;;;;;;;0.83;0.50;;;10.80;93.10;;;;;;5076545;28;20027;-70
2022/12/23 04:10:42;;;;;;;0.70;0.50;;;10.80;92.50;;;;;;5076379;28;20032;-70
2022/12/23 04:13:08;;;;;;;0.68;0.40;;;10.80;93.40;;;;;;5076520;28;20033;-70
2022/12/23 04:15:39;;;;;;;1.67;0.55;;;10.80;93.20;;;;;;5069270;28;20025;-70
2022/12/23 04:18:04;;;;;;;0.50;0.50;;;10.80;93.50;;;;;;5055244;28;20032;-70
2022/12/23 04:20:30;;;;;;;1.88;0.50;;;10.90;94.00;;;;;;5068140;28;20169;-70
2022/12/23 04:22:56;;;;;;;0.90;0.50;;;10.90;94.20;;;;;;5067344;28;20024;-70
2022/12/23 04:25:21;;;;;;;1.00;0.47;;;10.90;94.10;;;;;;5067875;28;20043;-70
2022/12/23 04:27:47;;;;;;;0.95;0.60;;;10.90;94.30;;;;;;5056817;28;20425;-70
2022/12/23 04:30:15;;;;;;;0.43;0.40;;;10.90;94.00;;;;;;5060286;28;20049;-69
2022/12/23 04:32:41;;;;;;;1.70;0.50;;;10.90;94.50;;;;;;5072440;28;20481;-70
2022/12/23 04:35:08;;;;;;;0.82;0.50;;;10.90;94.40;;;;;;5070168;28;20032;-70
2022/12/23 04:37:34;;;;;;;1.27;0.63;;;10.90;94.60;;;;;;5061081;28;20670;-70
2022/12/23 04:39:59;;;;;;;2.00;0.65;;;10.90;94.40;;;;;;5070801;28;20051;-70
2022/12/23 04:42:25;;;;;;;1.00;0.50;;;10.90;94.50;;;;;;5077004;28;20092;-70
2022/12/23 04:44:50;;;;;;;1.27;0.50;;;10.90;94.60;;;;;;5071960;28;20059;-70
2022/12/23 04:47:16;;;;;;;0.93;0.47;;;10.90;95.30;;;;;;5076426;28;20103;-69
2022/12/23 04:49:41;;;;;;;1.30;0.80;;;10.90;95.00;;;;;;5054395;28;20048;-70
2022/12/23 04:52:07;;;;;;;1.27;0.60;;;10.90;95.30;;;;;;5075903;28;20126;-70
2022/12/23 04:54:36;;;;;;;0.50;0.50;;;10.90;95.40;;;;;;5074243;28;20032;-70
2022/12/23 04:57:01;;;;;;;1.60;0.60;;;11.00;96.30;;;;;;5076528;28;20104;-70
2022/12/23 04:59:27;;;;;;;2.60;0.65;;;11.00;96.60;;;;;;5071434;28;20111;-70
2022/12/23 05:01:53;;;;;;;1.10;0.52;;;11.00;96.40;;;;;;5074262;28;20437;-70
2022/12/23 05:04:18;;;;;;;0.88;0.52;;;11.00;96.60;;;;;;5063476;28;20360;-70
2022/12/23 05:06:44;;;;;;;0.73;0.50;;;11.00;96.40;;;;;;5069787;28;20028;-70
2022/12/23 05:09:09;;;;;;;0.73;0.50;;;11.00;96.10;;;;;;5072005;28;20036;-70
2022/12/23 05:11:35;;;;;;;1.33;0.65;;;10.90;95.90;;;;;;5068880;28;20077;-70
2022/12/23 05:14:01;;;;;;;2.35;0.55;;;10.90;95.60;;;;;;5075440;28;20025;-69
2022/12/23 05:16:27;;;;;;;3.40;1.15;;;11.00;96.00;;;;;;5074061;28;20012;-70
2022/12/23 05:18:52;;;;;;;0.55;0.50;;;11.00;96.50;;;;;;5070702;28;20043;-70
2022/12/23 05:21:18;;;;;;;2.80;0.75;;;11.00;96.00;;;;;;5074806;28;20325;-70
2022/12/23 05:23:43;;;;;;;3.65;1.20;;;11.00;95.80;;;;;;5069473;28;20043;-70
2022/12/23 05:26:10;;;;;;;3.45;1.10;;;10.90;95.50;;;;;;5071979;28;20036;-70
2022/12/23 05:28:35;;;;;;;3.58;1.42;;;10.90;95.20;;;;;;5072151;28;20039;-70
2022/12/23 05:31:03;;;;;;;1.40;0.70;;;10.80;94.60;;;;;;5071324;28;20028;-70
2022/12/23 05:33:29;;;;;;;1.85;0.70;;;10.80;94.20;;;;;;5072525;28;20039;-69
2022/12/23 05:35:56;;;;;;;1.55;0.70;;;10.80;93.20;;;;;;5068654;28;20017;-69
2022/12/23 05:38:27;;;;;;;1.38;0.60;;;10.70;92.40;;;;;;5066911;28;20040;-69
2022/12/23 05:40:53;;;;;;;1.15;0.50;;;10.70;92.00;;;;;;5072377;28;20325;-69
2022/12/23 05:43:19;;;;;;;1.65;0.77;;;10.60;90.60;;;;;;5073308;28;20029;-72
2022/12/23 05:45:46;;;;;;;0.93;0.63;;;10.60;90.20;;;;;;5068010;28;20044;-71
2022/12/23 05:48:12;;;;;;;2.40;0.57;;;10.60;90.10;;;;;;5071968;28;20036;-71
2022/12/23 05:50:38;;;;;;;2.03;0.80;;;10.50;88.90;;;;;;5068679;28;20032;-71
2022/12/23 05:53:04;;;;;;;0.90;0.60;;;10.50;88.90;;;;;;5070833;28;20024;-70
2022/12/23 05:55:30;;;;;;;2.08;0.60;;;10.50;88.40;;;;;;5070179;28;20029;-70
2022/12/23 05:57:56;;;;;;;1.23;0.70;;;10.50;87.90;;;;;;5071711;28;20706;-70
2022/12/23 06:00:22;;;;;;;2.83;0.93;;;10.50;87.30;;;;;;5071866;28;20325;-70
2022/12/23 06:02:47;;;;;;;3.70;1.67;;;10.40;86.60;;;;;;5071776;28;20051;-70
2022/12/23 06:05:13;;;;;;;21.50;10.80;;;10.40;85.00;;;;;;5070958;28;20103;-71
2022/12/23 06:07:42;;;;;;;2.30;1.30;;;10.30;84.60;;;;;;5076591;28;20140;-72
2022/12/23 06:10:10;;;;;;;1.70;0.80;;;10.20;82.60;;;;;;5068630;28;20064;-71
2022/12/23 06:12:36;;;;;;;0.88;0.70;;;10.20;81.40;;;;;;5071800;28;20024;-71
2022/12/23 06:15:02;;;;;;;3.70;1.67;;;10.20;80.50;;;;;;5073340;28;20424;-70
2022/12/23 06:17:27;;;;;;;2.88;0.75;;;10.30;80.60;;;;;;5075066;28;20033;-70
2022/12/23 06:19:53;;;;;;;1.38;0.70;;;10.20;79.90;;;;;;5048592;28;20074;-70
2022/12/23 06:22:22;;;;;;;1.80;0.73;;;10.20;80.40;;;;;;5071142;28;20021;-70
2022/12/23 06:24:48;;;;;;;0.63;0.52;;;10.20;80.70;;;;;;5052276;28;20546;-70
2022/12/23 06:27:14;;;;;;;3.50;0.82;;;10.20;79.20;;;;;;5067288;28;20040;-71
2022/12/23 06:29:39;;;;;;;1.30;0.70;;;10.20;79.40;;;;;;5065750;28;20037;-70
2022/12/23 06:32:06;;;;;;;1.20;0.75;;;10.20;79.50;;;;;;5067579;28;20577;-70
2022/12/23 06:34:32;;;;;;;1.63;0.75;;;10.20;79.40;;;;;;5064027;28;20115;-70
2022/12/23 06:36:58;;;;;;;2.22;0.95;;;10.20;78.70;;;;;;5066912;28;20078;-70
2022/12/23 06:39:24;;;;;;;1.20;0.70;;;10.20;78.70;;;;;;5054878;28;20021;-70
2022/12/23 06:41:49;;;;;;;1.55;0.80;;;10.20;78.50;;;;;;5055612;28;20468;-70
2022/12/23 06:44:15;;;;;;;1.30;0.70;;;10.30;78.70;;;;;;5072568;28;20131;-70
2022/12/23 06:46:40;;;;;;;1.48;0.75;;;10.30;78.30;;;;;;5070433;28;20097;-70
2022/12/23 06:49:06;;;;;;;0.98;0.70;;;10.30;80.40;;;;;;5047266;28;20020;-70
2022/12/23 06:51:32;;;;;;;1.60;0.85;;;10.20;80.30;;;;;;5071947;28;20056;-70
2022/12/23 06:53:59;;;;;;;3.90;1.73;;;10.20;79.60;;;;;;5059251;28;20041;-70
2022/12/23 06:56:25;;;;;;;2.35;1.02;;;10.20;78.60;;;;;;5074876;28;20031;-70
2022/12/23 06:58:51;;;;;;;1.77;0.90;;;10.20;78.90;;;;;;5074725;28;20119;-70
2022/12/23 07:01:17;;;;;;;1.60;0.80;;;10.30;79.20;;;;;;5075636;28;20439;-70
2022/12/23 07:03:43;;;;;;;1.33;0.77;;;10.40;83.00;;;;;;5075944;28;20039;-70
2022/12/23 07:06:09;;;;;;;1.50;0.70;;;10.50;84.60;;;;;;5072289;28;20417;-70
2022/12/23 07:08:34;;;;;;;1.98;0.90;;;10.50;86.60;;;;;;5048448;28;20116;-70
2022/12/23 07:11:03;;;;;;;1.63;0.80;;;10.60;88.20;;;;;;5075649;28;20086;-70
2022/12/23 07:13:29;;;;;;;1.83;1.02;;;10.60;88.40;;;;;;5076379;28;20039;-70
2022/12/23 07:15:54;;;;;;;2.45;1.10;;;10.70;88.80;;;;;;5073229;28;20503;-70
2022/12/23 07:18:24;;;;;;;1.63;0.82;;;10.60;88.40;;;;;;5069006;28;20923;-70
2022/12/23 07:20:52;;;;;;;2.25;1.20;;;10.60;87.70;;;;;;5074646;28;20016;-70
2022/12/23 07:23:18;;;;;;;2.47;1.17;;;10.60;88.50;;;;;;5069614;28;20025;-70
2022/12/23 07:25:44;;;;;;;2.88;0.93;;;10.70;89.00;;;;;;5073933;28;20031;-70
2022/12/23 07:28:09;;;;;;;1.83;0.95;;;10.70;89.30;;;;;;5075530;28;20028;-70
2022/12/23 07:30:38;;;;;;;1.55;0.85;;;10.70;89.90;;;;;;5071798;28;20125;-70
2022/12/23 07:33:03;;;;;;;7.03;2.67;;;10.70;90.50;;;;;;5070529;28;20435;-70
2022/12/23 07:35:32;;;;;;;1.88;0.70;;;10.80;90.70;;;;;;5076085;28;20067;-70
2022/12/23 07:37:58;;;;;;;1.42;0.80;;;10.80;91.20;;;;;;5070765;28;20020;-69
2022/12/23 07:40:24;;;;;;;1.98;0.90;;;10.80;91.20;;;;;;5073673;28;20043;-70
2022/12/23 07:42:54;;;;;;;2.13;1.00;;;10.90;91.80;;;;;;5076501;28;20028;-70
2022/12/23 07:45:19;;;;;;;2.92;1.48;;;10.90;90.90;;;;;;5072649;28;20045;-70
2022/12/23 07:47:45;;;;;;;3.80;2.25;;;10.80;90.00;;;;;;5077051;28;20034;-70
2022/12/23 07:50:11;;;;;;;2.42;1.40;;;10.80;89.00;;;;;;5072883;28;20017;-71
2022/12/23 07:52:37;;;;;;;4.18;2.60;;;10.70;86.40;;;;;;5075156;28;20043;-72
2022/12/23 07:55:03;;;;;;;4.20;2.33;;;10.60;82.90;;;;;;5070430;28;20017;-71
2022/12/23 07:57:28;;;;;;;4.00;1.98;;;10.50;80.80;;;;;;5072156;28;20100;-71
2022/12/23 07:59:54;;;;;;;9.35;2.30;;;10.50;78.50;;;;;;5070758;28;20108;-72
2022/12/23 08:02:23;;;;;;;4.97;2.33;;;10.40;76.70;;;;;;5073609;28;20051;-71
2022/12/23 08:04:49;;;;;;;5.28;2.53;;;10.40;75.60;;;;;;5072050;28;20328;-71
2022/12/23 08:07:14;;;;;;;3.38;1.67;;;10.40;74.60;;;;;;5074651;28;20107;-71
2022/12/23 08:09:40;;;;;;;5.82;3.00;;;10.40;73.00;;;;;;5074273;28;20028;-72
2022/12/23 08:12:06;;;;;;;6.00;3.50;;;10.40;72.10;;;;;;5074972;28;20036;-72
2022/12/23 08:14:31;;;;;;;6.32;4.65;;;10.40;71.20;;;;;;5074778;28;20024;-73
2022/12/23 08:16:57;;;;;;;4.80;3.08;;;10.40;70.80;;;;;;5072679;28;20025;-73
2022/12/23 08:19:22;;;;;;;3.60;1.90;;;10.50;70.10;;;;;;5074345;28;20056;-72
2022/12/23 08:21:48;;;;;;;2.42;1.33;;;10.60;69.60;;;;;;5072843;28;20600;-72
2022/12/23 08:24:13;;;;;;;2.88;1.60;;;10.60;70.00;;;;;;5076683;28;20024;-71
2022/12/23 08:26:39;;;;;;;2.60;1.40;;;10.60;70.10;;;;;;5074497;28;20062;-71
2022/12/23 08:29:05;;;;;;;4.05;2.35;;;10.60;69.70;;;;;;5073824;28;20025;-72
2022/12/23 08:31:30;;;;;;;3.80;2.30;;;10.60;70.30;;;;;;5057654;28;20436;-72
2022/12/23 08:33:57;;;;;;;3.00;1.60;;;10.70;69.00;;;;;;5073052;28;20024;-71
2022/12/23 08:36:32;;;;;;;2.83;1.27;;;10.70;68.90;;;;;;5070615;28;20585;-71
2022/12/23 08:39:01;;;;;;;2.28;1.30;;;10.80;69.80;;;;;;5071931;28;20100;-71
2022/12/23 08:41:32;;;;;;;4.35;2.67;;;10.70;72.00;;;;;;5074009;28;20060;-71
2022/12/23 08:43:58;;;;;;;4.00;2.00;;;10.70;71.20;;;;;;5074057;28;20032;-71
2022/12/23 08:46:24;;;;;;;4.65;1.90;;;10.70;72.70;;;;;;5075032;28;20020;-71
2022/12/23 08:48:51;;;;;;;3.85;1.70;;;10.70;73.40;;;;;;5072566;28;20094;-70
2022/12/23 08:51:19;;;;;;;2.88;1.40;;;10.60;74.00;;;;;;5070772;28;20025;-70
2022/12/23 08:53:45;;;;;;;4.10;1.45;;;10.70;73.60;;;;;;5075757;28;20017;-71
2022/12/23 08:56:14;;;;;;;5.60;2.40;;;10.70;75.70;;;;;;5074053;28;20024;-72
2022/12/23 08:58:44;;;;;;;6.32;2.50;;;10.70;77.40;;;;;;5074249;28;20035;-69
2022/12/23 09:01:11;;;;;;;4.05;1.80;;;10.70;79.90;;;;;;5074356;28;20074;-72
2022/12/23 09:03:38;;;;;;;3.78;1.50;;;10.70;81.30;;;;;;5054989;28;20039;-72
2022/12/23 09:06:09;;;;;;;3.15;1.60;;;10.70;81.00;;;;;;5072881;28;20038;-71
2022/12/23 09:08:35;;;;;;;3.70;1.85;;;10.70;82.00;;;;;;5058787;28;20134;-70
2022/12/23 09:11:01;;;;;;;4.20;1.50;;;10.70;83.60;;;;;;5067191;28;20519;-71
2022/12/23 09:13:27;;;;;;;4.47;1.98;;;10.70;82.70;;;;;;5073094;28;20033;-70
2022/12/23 09:15:53;;;;;;;3.03;1.45;;;10.70;83.90;;;;;;5075966;28;20043;-71
2022/12/23 09:18:19;;;;;;;2.78;1.30;;;10.70;83.80;;;;;;5055047;28;20025;-71
2022/12/23 09:20:45;;;;;;;4.03;1.75;;;10.80;84.60;;;;;;5054141;28;20025;-70
2022/12/23 09:23:11;;;;;;;3.33;1.42;;;10.80;85.30;;;;;;5073477;28;20025;-71
2022/12/23 09:25:36;;;;;;;4.32;1.77;;;10.80;88.80;;;;;;5072842;28;20031;-71
2022/12/23 09:28:03;;;;;;;2.35;1.27;;;10.90;88.40;;;;;;5073105;28;20048;-70
2022/12/23 09:30:31;;;;;;;3.08;1.40;;;10.90;89.20;;;;;;5074732;28;20048;-71
2022/12/23 09:32:57;;;;;;;4.50;2.50;;;10.90;90.10;;;;;;5075580;28;20024;-71
2022/12/23 09:35:22;;;;;;;3.95;2.00;;;10.90;89.80;;;;;;5073113;28;20098;-70
2022/12/23 09:37:51;;;;;;;3.13;1.20;;;11.00;88.70;;;;;;5074685;28;20017;-70
2022/12/23 09:40:20;;;;;;;4.95;1.58;;;11.00;90.30;;;;;;5057357;28;20328;-70
2022/12/23 09:43:13;;;;;;;5.50;2.08;;;11.00;90.10;;;;;;5073613;28;20347;-70
2022/12/23 09:46:03;;;;;;;3.40;1.58;;;11.10;88.40;;;;;;5074749;28;20483;-70
2022/12/23 09:48:36;;;;;;;3.25;1.50;;;11.10;92.30;;;;;;5071431;28;20028;-70
2022/12/23 09:51:02;;;;;;;3.22;1.40;;;11.20;91.50;;;;;;5071667;28;20021;-70
2022/12/23 09:53:49;;;;;;;2.63;1.10;;;11.20;90.90;;;;;;5052477;28;20030;-70
2022/12/23 09:56:17;;;;;;;0.70;0.50;;;11.30;92.40;;;;;;5050323;28;20056;-70
2022/12/23 09:59:01;;;;;;;1.15;0.60;;;11.30;95.30;;;;;;5068514;28;20025;-70
2022/12/23 10:01:33;;;;;;;0.98;0.50;;;11.40;96.50;;;;;;5072826;28;20033;-72
2022/12/23 10:04:20;;;;;;;1.52;0.60;;;11.50;98.00;;;;;;5074286;28;20432;-70
2022/12/23 10:07:08;;;;;;;1.63;0.70;;;11.60;96.80;;;;;;5071099;28;20064;-70
2022/12/23 10:09:38;;;;;;;0.60;0.50;;;11.60;98.00;;;;;;5053473;28;20033;-70
2022/12/23 10:12:15;;;;;;;0.95;0.57;;;11.70;98.00;;;;;;5071629;28;20033;-70
2022/12/23 10:14:43;;;;;;;1.10;0.70;;;11.70;98.00;;;;;;5072244;28;20116;-72
2022/12/23 10:17:19;;;;;;;2.47;0.90;;;11.80;97.80;;;;;;5073144;28;20405;-70
2022/12/23 10:19:47;;;;;;;1.95;0.80;;;11.80;98.00;;;;;;5073504;28;20047;-70
2022/12/23 10:22:13;;;;;;;1.75;0.70;;;11.90;98.00;;;;;;5076728;28;20028;-69
2022/12/23 10:24:43;;;;;;;3.65;1.30;;;12.00;98.00;;;;;;5077500;28;20087;-69
2022/12/23 10:27:23;;;;;;;1.33;0.60;;;12.10;98.00;;;;;;5076211;28;20321;-69
2022/12/23 10:29:49;;;;;;;2.83;0.60;;;12.20;98.00;;;;;;5074406;28;20032;-69
2022/12/23 10:32:52;;;;;;;1.05;0.60;;;12.30;98.00;;;;;;5068785;28;20127;-70
2022/12/23 10:35:39;;;;;;;1.33;0.60;;;12.30;98.00;;;;;;5076530;28;20033;-69
2022/12/23 10:38:23;;;;;;;0.73;0.50;;;12.40;98.00;;;;;;5066650;28;20032;-71
2022/12/23 10:41:21;;;;;;;0.77;0.50;;;12.50;98.00;;;;;;5058929;28;20028;-69
2022/12/23 10:44:03;;;;;;;1.60;0.80;;;12.30;98.00;;;;;;5079303;28;20332;-69
2022/12/23 10:47:01;;;;;;;1.58;0.80;;;12.20;98.00;;;;;;5076500;28;20036;-70
2022/12/23 10:49:39;;;;;;;0.47;0.40;;;12.10;98.00;;;;;;5051702;28;20067;-69
2022/12/23 10:52:27;;;;;;;0.75;0.50;;;12.00;98.00;;;;;;5075585;28;20302;-71
2022/12/23 10:54:52;;;;;;;0.90;0.57;;;11.70;96.20;;;;;;5071852;28;20033;-70
2022/12/23 10:57:23;;;;;;;2.28;0.77;;;11.60;95.40;;;;;;5076604;28;20047;-70
2022/12/23 10:59:49;;;;;;;1.95;0.68;;;11.50;93.90;;;;;;5073959;28;20027;-71
2022/12/23 11:02:17;;;;;;;0.90;0.50;;;11.60;95.30;;;;;;5071804;28;20024;-70
2022/12/23 11:04:53;;;;;;;1.23;0.60;;;11.60;93.10;;;;;;5054834;28;20316;-70
2022/12/23 11:07:27;;;;;;;1.17;0.47;;;11.60;94.70;;;;;;5080794;28;20036;-70
2022/12/23 11:10:33;;;;;;;0.68;0.55;;;11.70;93.90;;;;;;5080396;28;20029;-70
2022/12/23 11:12:59;;;;;;;1.45;0.60;;;11.80;96.60;;;;;;4997413;28;20023;-70
2022/12/23 11:15:24;;;;;;;1.25;0.60;;;11.90;96.90;;;;;;5044669;28;20496;-71
2022/12/23 11:18:12;;;;;;;0.47;0.47;;;11.90;97.00;;;;;;5058984;28;20124;-70
2022/12/23 11:20:42;;;;;;;0.68;0.55;;;11.90;97.90;;;;;;5070589;28;20034;-70
2022/12/23 11:23:26;;;;;;;2.03;0.60;;;12.00;98.00;;;;;;5073366;28;20111;-70
2022/12/23 11:26:07;;;;;;;1.70;0.70;;;12.00;98.00;;;;;;5071101;28;20052;-70
2022/12/23 11:28:36;;;;;;;1.38;0.60;;;12.10;98.00;;;;;;5073001;28;20091;-69
2022/12/23 11:31:10;;;;;;;0.40;0.40;;;12.20;98.00;;;;;;5072196;28;20032;-71
2022/12/23 11:34:00;;;;;;;1.05;0.80;;;12.30;98.00;;;;;;5053425;28;20028;-70
2022/12/23 11:36:29;;;;;;;1.00;0.70;;;12.50;98.00;;;;;;5071371;28;20056;-69
2022/12/23 11:39:00;;;;;;;1.27;0.60;;;12.50;98.00;;;;;;5054261;28;20124;-70
2022/12/23 11:41:28;;;;;;;2.47;1.10;;;12.60;98.00;;;;;;5051710;28;20029;-70
2022/12/23 11:44:02;;;;;;;1.73;0.80;;;12.60;98.00;;;;;;5068654;28;20316;-69
2022/12/23 11:46:32;;;;;;;1.00;0.60;;;12.50;98.00;;;;;;5053701;28;20032;-69
2022/12/23 11:49:14;;;;;;;3.50;0.85;;;12.40;98.00;;;;;;5047061;28;20462;-68
2022/12/23 11:51:45;;;;;;;0.82;0.60;;;12.40;98.00;;;;;;5055308;28;20036;-70
2022/12/23 11:54:19;;;;;;;1.58;0.73;;;12.30;98.00;;;;;;5066815;28;20456;-71
2022/12/23 11:56:51;;;;;;;0.93;0.63;;;12.20;98.00;;;;;;5063691;28;20326;-72
2022/12/23 11:59:38;;;;;;;3.28;0.80;;;12.10;98.00;;;;;;5051943;28;20024;-71
2022/12/23 12:02:30;;;;;;;1.75;0.70;;;12.00;98.00;;;;;;5071028;28;20024;-71
2022/12/23 12:05:22;;;;;;;2.65;1.10;;;11.90;98.00;;;;;;5066684;28;20103;-71
2022/12/23 12:07:50;;;;;;;1.85;0.95;;;11.80;98.00;;;;;;5062380;28;20041;-71
2022/12/23 12:10:28;;;;;;;2.00;0.90;;;11.80;98.00;;;;;;5067287;28;20021;-71
2022/12/23 12:13:01;;;;;;;3.28;1.45;;;11.80;98.00;;;;;;5072382;28;20101;-71
2022/12/23 12:15:26;;;;;;;2.53;1.20;;;11.80;98.00;;;;;;5070446;28;20493;-71
2022/12/23 12:17:55;;;;;;;2.85;1.45;;;11.90;98.00;;;;;;5074156;28;20100;-71
2022/12/23 12:20:29;;;;;;;2.72;1.27;;;11.90;98.00;;;;;;5060289;28;20035;-70
2022/12/23 12:22:57;;;;;;;;;;;11.90;98.00;;;;;;5089942;28;20028;-70
2022/12/23 12:25:40;;;;;;;2.35;1.05;;;11.90;98.00;;;;;;5095253;28;19908;-70
2022/12/23 12:28:12;;;;;;;1.40;0.70;;;12.10;98.00;;;;;;5093996;28;20079;-70
2022/12/23 12:30:45;;;;;;;2.97;1.27;;;12.20;98.00;;;;;;5074096;28;20309;-70
2022/12/23 12:33:37;;;;;;;2.97;1.60;;;12.30;98.00;;;;;;5089054;28;20032;-70
2022/12/23 12:36:24;;;;;;;2.50;1.40;;;12.30;98.00;;;;;;5094154;28;20032;-70
2022/12/23 12:38:53;;;;;;;2.85;1.35;;;12.40;98.00;;;;;;5093500;28;20021;-70
2022/12/23 12:41:31;;;;;;;2.60;1.17;;;12.50;98.00;;;;;;5095216;28;20020;-70
2022/12/23 12:44:25;;;;;;;1.10;0.70;;;12.50;98.00;;;;;;5092761;28;20072;-70
2022/12/23 12:47:00;;;;;;;1.65;0.70;;;12.60;98.00;;;;;;5093506;28;20055;-70
2022/12/23 12:49:34;;;;;;;1.77;0.80;;;12.70;98.00;;;;;;5090845;28;20039;-70
2022/12/23 12:52:02;;;;;;;1.05;0.70;;;12.70;98.00;;;;;;5080968;28;20028;-70
2022/12/23 12:54:44;;;;;;;1.13;0.70;;;12.70;98.00;;;;;;5091957;28;20293;-70
2022/12/23 12:57:16;;;;;;;1.35;0.88;;;12.70;98.00;;;;;;5088721;28;20020;-70
2022/12/23 12:59:43;;;;;;;2.22;1.02;;;12.70;98.00;;;;;;5093094;28;20028;-69
2022/12/23 13:02:44;;;;;;;1.60;0.80;;;12.70;98.00;;;;;;5090921;28;20024;-69
2022/12/23 13:05:46;;;;;;;0.65;0.50;;;12.70;98.00;;;;;;5092347;28;20028;-70
2022/12/23 13:08:39;;;;;;;3.17;0.80;;;12.70;98.00;;;;;;5090302;28;20045;-69
2022/12/23 13:11:27;;;;;;;0.82;0.60;;;12.60;98.00;;;;;;5089944;28;20062;-70
2022/12/23 13:14:22;;;;;;;0.45;0.45;;;12.60;98.00;;;;;;5095663;28;20485;-70
2022/12/23 13:17:07;;;;;;;1.58;0.70;;;12.60;98.00;;;;;;5075610;28;20059;-70
2022/12/23 13:19:35;;;;;;;1.17;0.85;;;12.60;98.00;;;;;;5077073;28;20325;-70
2022/12/23 13:22:19;;;;;;;0.68;0.50;;;12.60;98.00;;;;;;5095025;28;20312;-70
2022/12/23 13:25:14;;;;;;;1.07;0.70;;;12.60;98.00;;;;;;5084344;28;20032;-70
2022/12/23 13:27:56;;;;;;;0.88;0.50;;;12.60;98.00;;;;;;5085910;28;20421;-70
2022/12/23 13:30:26;;;;;;;0.70;0.50;;;12.70;98.00;;;;;;5092025;28;20058;-70
2022/12/23 13:33:20;;;;;;;0.80;0.50;;;12.80;98.00;;;;;;5093863;28;20035;-70
2022/12/23 13:36:04;;;;;;;0.98;0.73;;;12.80;98.00;;;;;;5078640;28;20080;-70
2022/12/23 13:39:06;;;;;;;0.57;0.50;;;12.90;98.00;;;;;;5093894;28;20103;-70